createdAt,value
2018-08-10T00:01:12.715Z,21.70
2018-08-10T00:03:43.432Z,21.80
2018-08-10T00:06:15.407Z,22.00
2018-08-10T00:08:46.594Z,22.00
2018-08-10T00:11:18.543Z,22.10
2018-08-10T00:13:49.217Z,22.00
2018-08-10T00:16:22.379Z,22.10
2018-08-10T00:18:55.808Z,22.20
2018-08-10T00:21:34.890Z,21.90
2018-08-10T00:24:11.693Z,21.90
2018-08-10T00:26:45.170Z,21.80
2018-08-10T00:29:16.057Z,21.90
2018-08-10T00:31:48.432Z,21.70
2018-08-10T00:34:21.694Z,21.80
2018-08-10T00:36:55.558Z,21.60
2018-08-10T00:39:26.826Z,21.70
2018-08-10T00:41:58.296Z,21.80
2018-08-10T00:44:30.133Z,21.80
2018-08-10T00:47:01.891Z,21.70
2018-08-10T00:49:32.371Z,21.80
2018-08-10T00:52:14.876Z,21.60
2018-08-10T00:54:46.605Z,21.50
2018-08-10T00:57:17.960Z,21.20
2018-08-10T00:59:49.291Z,21.10
2018-08-10T01:02:31.788Z,21.00
2018-08-10T01:05:06.191Z,21.10
2018-08-10T01:07:41.282Z,20.90
2018-08-10T01:10:16.311Z,21.00
2018-08-10T01:12:48.745Z,20.90
2018-08-10T01:15:21.454Z,20.90
2018-08-10T01:17:53.460Z,21.10
2018-08-10T01:20:32.799Z,21.10
2018-08-10T01:23:08.095Z,20.90
2018-08-10T01:25:38.578Z,21.00
2018-08-10T01:28:10.240Z,21.00
2018-08-10T01:30:42.250Z,20.90
2018-08-10T01:33:13.674Z,20.80
2018-08-10T01:35:43.998Z,20.70
2018-08-10T01:38:14.347Z,20.60
2018-08-10T01:40:44.871Z,20.60
2018-08-10T01:43:15.143Z,20.60
2018-08-10T01:45:45.682Z,20.80
2018-08-10T01:48:16.090Z,20.80
2018-08-10T01:50:50.037Z,20.70
2018-08-10T01:53:20.567Z,20.50
2018-08-10T01:55:50.882Z,20.50
2018-08-10T01:58:21.542Z,20.20
2018-08-10T02:00:51.865Z,20.00
2018-08-10T02:03:22.218Z,19.80
2018-08-10T02:05:52.555Z,19.20
2018-08-10T02:08:22.858Z,19.40
2018-08-10T02:10:54.170Z,19.30
2018-08-10T02:13:24.697Z,19.10
2018-08-10T02:15:58.385Z,19.10
2018-08-10T02:18:28.662Z,19.40
2018-08-10T02:21:00.249Z,19.60
2018-08-10T02:23:31.364Z,19.70
2018-08-10T02:26:01.812Z,19.80
2018-08-10T02:28:32.157Z,19.80
2018-08-10T02:31:09.069Z,19.60
2018-08-10T02:33:39.488Z,19.60
2018-08-10T02:36:10.540Z,19.40
2018-08-10T02:38:42.446Z,19.50
2018-08-10T02:41:14.282Z,19.30
2018-08-10T02:43:45.035Z,19.40
2018-08-10T02:46:15.336Z,19.20
2018-08-10T02:48:49.014Z,19.10
2018-08-10T02:51:19.297Z,18.90
2018-08-10T02:53:50.005Z,19.10
2018-08-10T02:56:20.696Z,19.10
2018-08-10T02:58:50.987Z,18.90
2018-08-10T03:01:23.145Z,19.10
2018-08-10T03:03:55.314Z,19.00
2018-08-10T03:06:25.667Z,19.30
2018-08-10T03:08:56.126Z,19.30
2018-08-10T03:11:27.094Z,19.30
2018-08-10T03:13:57.481Z,19.40
2018-08-10T03:16:27.815Z,19.40
2018-08-10T03:18:58.130Z,19.10
2018-08-10T03:21:28.656Z,19.20
2018-08-10T03:23:59.200Z,19.30
2018-08-10T03:26:29.655Z,19.20
2018-08-10T03:29:00.049Z,19.20
2018-08-10T03:31:30.389Z,19.40
2018-08-10T03:34:01.055Z,19.20
2018-08-10T03:36:43.684Z,19.40
2018-08-10T03:39:14.086Z,19.10
2018-08-10T03:41:44.395Z,19.20
2018-08-10T03:44:15.058Z,18.90
2018-08-10T03:46:46.482Z,19.00
2018-08-10T03:49:22.534Z,18.90
2018-08-10T03:51:53.574Z,18.60
2018-08-10T03:54:23.981Z,18.70
2018-08-10T03:56:57.082Z,18.60
2018-08-10T03:59:29.492Z,18.60
2018-08-10T04:02:02.441Z,18.60
2018-08-10T04:04:32.899Z,18.70
2018-08-10T04:07:03.400Z,18.80
2018-08-10T04:09:33.731Z,19.00
2018-08-10T04:12:08.745Z,19.10
2018-08-10T04:14:39.041Z,19.10
2018-08-10T04:17:16.191Z,18.90
2018-08-10T04:19:46.695Z,19.00
2018-08-10T04:22:17.268Z,19.00
2018-08-10T04:24:48.951Z,19.10
2018-08-10T04:27:19.807Z,19.00
2018-08-10T04:29:51.523Z,18.70
2018-08-10T04:32:27.739Z,18.60
2018-08-10T04:34:58.043Z,18.50
2018-08-10T04:37:28.653Z,18.40
2018-08-10T04:39:59.018Z,17.80
2018-08-10T04:42:31.483Z,17.80
2018-08-10T04:45:02.259Z,17.80
2018-08-10T04:47:32.542Z,17.90
2018-08-10T04:50:02.858Z,18.00
2018-08-10T04:52:33.231Z,18.00
2018-08-10T04:55:04.798Z,18.00
2018-08-10T04:57:35.118Z,18.00
2018-08-10T05:00:09.886Z,18.00
2018-08-10T05:02:40.246Z,17.80
2018-08-10T05:05:11.561Z,17.60
2018-08-10T05:07:59.913Z,17.70
2018-08-10T05:10:31.812Z,17.80
2018-08-10T05:13:02.445Z,17.80
2018-08-10T05:15:32.895Z,17.90
2018-08-10T05:18:03.831Z,17.90
2018-08-10T05:20:36.558Z,17.60
2018-08-10T05:23:08.664Z,17.50
2018-08-10T05:25:39.085Z,17.40
2018-08-10T05:28:09.480Z,17.60
2018-08-10T05:30:39.776Z,17.50
2018-08-10T05:33:13.829Z,17.50
2018-08-10T05:35:44.641Z,17.80
2018-08-10T05:38:17.662Z,17.80
2018-08-10T05:40:51.418Z,17.70
2018-08-10T05:43:22.300Z,17.40
2018-08-10T05:45:53.209Z,17.50
2018-08-10T05:48:26.198Z,17.60
2018-08-10T05:51:01.563Z,17.60
2018-08-10T05:53:33.566Z,17.60
2018-08-10T05:56:03.895Z,17.70
2018-08-10T05:58:34.230Z,17.80
2018-08-10T06:01:04.993Z,17.80
2018-08-10T06:03:35.437Z,17.80
2018-08-10T06:06:05.767Z,17.80
2018-08-10T06:08:36.120Z,17.50
2018-08-10T06:11:06.502Z,17.70
2018-08-10T06:13:36.852Z,17.70
2018-08-10T06:16:13.955Z,17.90
2018-08-10T06:18:45.086Z,17.90
2018-08-10T06:21:15.415Z,18.00
2018-08-10T06:23:46.205Z,18.00
2018-08-10T06:26:16.704Z,18.20
2018-08-10T06:28:47.368Z,18.30
2018-08-10T06:31:17.619Z,18.40
2018-08-10T06:33:48.032Z,18.50
2018-08-10T06:36:18.301Z,18.70
2018-08-10T06:38:48.697Z,18.60
2018-08-10T06:41:19.024Z,18.70
2018-08-10T06:43:49.539Z,18.80
2018-08-10T06:46:19.858Z,18.80
2018-08-10T06:48:50.654Z,19.00
2018-08-10T06:51:21.074Z,19.00
2018-08-10T06:53:51.321Z,19.00
2018-08-10T06:56:22.090Z,18.80
2018-08-10T06:58:52.914Z,18.90
2018-08-10T07:01:23.306Z,19.00
2018-08-10T07:03:53.707Z,19.10
2018-08-10T07:06:23.999Z,19.30
2018-08-10T07:08:54.539Z,19.40
2018-08-10T07:11:25.010Z,19.40
2018-08-10T07:13:55.565Z,19.30
2018-08-10T07:16:25.969Z,19.50
2018-08-10T07:18:56.325Z,19.50
2018-08-10T07:21:26.595Z,19.70
2018-08-10T07:23:56.963Z,19.70
2018-08-10T07:26:27.382Z,20.00
2018-08-10T07:28:57.687Z,20.30
2018-08-10T07:31:28.123Z,20.60
2018-08-10T07:33:58.471Z,20.80
2018-08-10T07:36:28.734Z,20.50
2018-08-10T07:38:59.348Z,20.60
2018-08-10T07:41:29.614Z,20.40
2018-08-10T07:44:00.006Z,20.40
2018-08-10T07:46:30.416Z,20.70
2018-08-10T07:49:00.877Z,21.00
2018-08-10T07:51:31.249Z,21.30
2018-08-10T07:54:01.589Z,21.60
2018-08-10T07:56:31.930Z,21.50
2018-08-10T07:59:02.376Z,21.50
2018-08-10T08:01:32.750Z,21.60
2018-08-10T08:04:03.134Z,21.50
2018-08-10T08:06:33.503Z,21.30
2018-08-10T08:09:03.908Z,21.50
2018-08-10T08:11:34.242Z,21.80
2018-08-10T08:14:04.687Z,22.10
2018-08-10T08:16:35.247Z,22.00
2018-08-10T08:19:05.595Z,21.90
2018-08-10T08:21:36.061Z,22.10
2018-08-10T08:24:06.380Z,22.10
2018-08-10T08:26:37.584Z,22.40
2018-08-10T08:29:09.721Z,22.40
2018-08-10T08:31:40.200Z,22.20
2018-08-10T08:34:10.653Z,22.30
2018-08-10T08:36:41.116Z,22.20
2018-08-10T08:39:34.077Z,22.20
2018-08-10T08:42:04.627Z,22.20
2018-08-10T08:46:09.648Z,22.20
2018-08-10T08:48:44.202Z,22.10
2018-08-10T08:51:17.163Z,22.30
2018-08-10T08:53:47.855Z,22.60
2018-08-10T08:56:20.004Z,22.80
2018-08-10T08:58:50.797Z,23.00
2018-08-10T09:01:21.171Z,23.10
2018-08-10T09:04:48.950Z,23.20
2018-08-10T09:07:19.532Z,23.40
2018-08-10T09:09:50.065Z,24.00
2018-08-10T09:12:20.458Z,24.00
2018-08-10T09:15:08.661Z,24.00
2018-08-10T09:17:41.124Z,24.30
2018-08-10T09:20:11.953Z,24.40
2018-08-10T09:22:42.324Z,24.40
2018-08-10T09:25:15.194Z,25.20
2018-08-10T09:27:45.919Z,25.70
2018-08-10T09:30:17.974Z,25.50
2018-08-10T09:32:48.352Z,25.30
2018-08-10T09:35:19.735Z,25.10
2018-08-10T09:37:50.131Z,25.00
2018-08-10T09:40:21.179Z,25.10
2018-08-10T09:42:52.294Z,24.80
2018-08-10T09:45:22.673Z,25.20
2018-08-10T09:47:53.081Z,25.60
2018-08-10T09:50:23.412Z,26.10
2018-08-10T09:52:59.430Z,26.50
2018-08-10T09:55:32.211Z,26.70
2018-08-10T09:58:05.826Z,27.10
2018-08-10T10:00:41.358Z,27.20
2018-08-10T10:03:17.886Z,27.60
2018-08-10T10:05:49.074Z,28.00
2018-08-10T10:08:20.122Z,28.00
2018-08-10T10:10:50.458Z,27.90
2018-08-10T10:13:20.895Z,28.10
2018-08-10T10:15:51.279Z,27.60
2018-08-10T10:18:21.682Z,27.60
2018-08-10T10:20:52.123Z,28.00
2018-08-10T10:23:22.389Z,28.00
2018-08-10T10:25:53.086Z,28.00
2018-08-10T10:28:23.468Z,28.10
2018-08-10T10:30:53.770Z,28.10
2018-08-10T10:33:24.107Z,27.90
2018-08-10T10:35:54.831Z,27.20
2018-08-10T10:38:25.565Z,27.10
2018-08-10T10:41:02.390Z,28.00
2018-08-10T10:43:32.800Z,27.70
2018-08-10T10:46:03.260Z,28.50
2018-08-10T10:48:33.653Z,28.90
2018-08-10T10:51:04.038Z,29.10
2018-08-10T10:53:34.341Z,28.90
2018-08-10T10:56:04.646Z,28.10
2018-08-10T10:58:35.027Z,28.50
2018-08-10T11:01:05.450Z,28.30
2018-08-10T11:03:35.968Z,28.60
2018-08-10T11:06:06.314Z,28.20
2018-08-10T11:08:36.687Z,28.00
2018-08-10T11:11:06.966Z,28.70
2018-08-10T11:13:37.318Z,29.10
2018-08-10T11:16:07.673Z,29.40
2018-08-10T11:18:38.042Z,29.60
2018-08-10T11:21:08.402Z,29.80
2018-08-10T11:23:38.803Z,29.80
2018-08-10T11:26:09.157Z,30.40
2018-08-10T11:28:39.465Z,30.50
2018-08-10T11:31:09.746Z,29.40
2018-08-10T11:33:40.041Z,28.80
2018-08-10T11:36:10.318Z,28.40
2018-08-10T11:38:40.627Z,27.80
2018-08-10T11:41:10.917Z,27.60
2018-08-10T11:43:41.594Z,27.20
2018-08-10T11:46:11.894Z,27.50
2018-08-10T11:48:42.299Z,27.90
2018-08-10T11:51:12.603Z,27.90
2018-08-10T11:53:42.994Z,28.10
2018-08-10T11:56:13.650Z,28.70
2018-08-10T11:58:44.144Z,28.50
2018-08-10T12:01:15.087Z,27.80
2018-08-10T12:03:46.347Z,27.80
2018-08-10T12:06:17.819Z,28.30
2018-08-10T12:08:48.389Z,29.40
2018-08-10T12:11:19.005Z,30.50
2018-08-10T12:13:49.582Z,32.20
2018-08-10T12:16:20.184Z,33.10
2018-08-10T12:18:51.130Z,32.80
2018-08-10T12:21:21.733Z,31.70
2018-08-10T12:23:52.214Z,30.40
2018-08-10T12:26:22.666Z,29.80
2018-08-10T12:28:53.270Z,30.00
2018-08-10T12:31:24.090Z,30.70
2018-08-10T12:33:54.547Z,30.70
2018-08-10T12:36:24.955Z,31.90
2018-08-10T12:38:55.536Z,32.50
2018-08-10T12:41:26.196Z,33.20
2018-08-10T12:43:56.837Z,32.10
2018-08-10T12:46:27.375Z,31.90
2018-08-10T12:48:58.140Z,30.80
2018-08-10T12:51:28.883Z,30.30
2018-08-10T12:53:59.981Z,31.20
2018-08-10T12:56:30.734Z,33.40
2018-08-10T12:59:01.317Z,34.80
2018-08-10T13:01:31.712Z,36.20
2018-08-10T13:04:02.238Z,37.10
2018-08-10T13:06:32.595Z,37.20
2018-08-10T13:09:03.053Z,37.80
2018-08-10T13:11:33.337Z,37.50
2018-08-10T13:14:03.736Z,38.30
2018-08-10T13:16:34.091Z,39.20
2018-08-10T13:19:04.826Z,39.30
2018-08-10T13:21:35.141Z,36.90
2018-08-10T13:24:05.615Z,34.10
2018-08-10T13:26:35.965Z,32.80
2018-08-10T13:29:06.307Z,31.40
2018-08-10T13:31:36.722Z,30.80
2018-08-10T13:34:07.154Z,30.50
2018-08-10T13:36:37.504Z,29.90
2018-08-10T13:39:11.285Z,29.80
2018-08-10T13:41:42.678Z,29.30
2018-08-10T13:44:13.100Z,28.90
2018-08-10T13:46:43.439Z,29.20
2018-08-10T13:49:13.770Z,29.80
2018-08-10T13:51:44.413Z,29.90
2018-08-10T13:54:14.719Z,30.30
2018-08-10T13:56:45.460Z,30.20
2018-08-10T13:59:15.894Z,30.40
2018-08-10T14:01:46.545Z,30.90
2018-08-10T14:04:17.047Z,30.60
2018-08-10T14:06:47.459Z,30.40
2018-08-10T14:09:18.243Z,30.20
2018-08-10T14:11:48.968Z,29.60
2018-08-10T14:14:19.351Z,29.10
2018-08-10T14:16:49.642Z,29.00
2018-08-10T14:19:20.634Z,28.60
2018-08-10T14:21:51.397Z,28.60
2018-08-10T14:24:21.730Z,28.60
2018-08-10T14:26:52.017Z,28.30
2018-08-10T14:29:22.354Z,28.10
2018-08-10T14:31:52.972Z,27.90
2018-08-10T14:34:23.284Z,27.70
2018-08-10T14:36:53.730Z,27.60
2018-08-10T14:39:24.138Z,27.70
2018-08-10T14:41:54.722Z,27.80
2018-08-10T14:44:25.050Z,27.60
2018-08-10T14:46:55.381Z,27.40
2018-08-10T14:49:25.717Z,27.50
2018-08-10T14:51:55.989Z,27.50
2018-08-10T14:54:26.333Z,27.60
2018-08-10T14:56:56.694Z,28.30
2018-08-10T14:59:27.053Z,28.30
2018-08-10T15:02:01.819Z,28.50
2018-08-10T15:04:32.253Z,28.50
2018-08-10T15:07:02.906Z,28.40
2018-08-10T15:09:33.391Z,28.00
2018-08-10T15:12:03.960Z,27.90
2018-08-10T15:14:34.303Z,27.80
2018-08-10T15:17:04.633Z,27.60
2018-08-10T15:19:35.206Z,27.60
2018-08-10T15:22:05.778Z,27.30
2018-08-10T15:24:37.413Z,27.60
2018-08-10T15:27:08.050Z,27.40
2018-08-10T15:29:38.489Z,27.10
2018-08-10T15:32:08.845Z,27.30
2018-08-10T15:34:39.235Z,27.30
2018-08-10T15:37:09.608Z,27.20
2018-08-10T15:39:40.013Z,27.00
2018-08-10T15:42:10.470Z,27.20
2018-08-10T15:44:40.838Z,27.20
2018-08-10T15:47:11.253Z,27.30
2018-08-10T15:49:41.538Z,27.40
2018-08-10T15:52:11.881Z,27.50
2018-08-10T15:54:42.208Z,27.20
2018-08-10T15:57:12.599Z,26.60
2018-08-10T15:59:42.885Z,26.60
2018-08-10T16:02:13.330Z,26.40
2018-08-10T16:04:43.594Z,26.40
2018-08-10T16:07:14.141Z,26.70
2018-08-10T16:09:44.958Z,26.50
2018-08-10T16:12:15.394Z,26.80
2018-08-10T16:14:45.912Z,27.10
2018-08-10T16:17:16.262Z,27.10
2018-08-10T16:19:46.954Z,27.00
2018-08-10T16:22:17.400Z,27.20
2018-08-10T16:24:47.842Z,27.80
2018-08-10T16:27:18.402Z,27.90
2018-08-10T16:29:48.958Z,27.30
2018-08-10T16:32:19.379Z,27.20
2018-08-10T16:34:49.823Z,27.20
2018-08-10T16:37:20.194Z,27.10
2018-08-10T16:39:51.118Z,26.90
2018-08-10T16:42:21.859Z,26.70
2018-08-10T16:44:52.209Z,26.60
2018-08-10T16:47:22.596Z,26.30
2018-08-10T16:49:53.270Z,26.00
2018-08-10T16:52:24.962Z,25.60
2018-08-10T16:54:55.584Z,25.90
2018-08-10T16:57:25.891Z,25.90
2018-08-10T16:59:57.294Z,25.80
2018-08-10T17:02:28.535Z,25.70
2018-08-10T17:04:59.005Z,26.50
2018-08-10T17:07:30.457Z,27.20
2018-08-10T17:10:01.062Z,27.90
2018-08-10T17:12:31.430Z,27.90
2018-08-10T17:15:01.755Z,27.60
2018-08-10T17:18:02.761Z,27.20
2018-08-10T17:20:33.103Z,27.00
2018-08-10T17:23:05.178Z,26.70
2018-08-10T17:25:37.673Z,26.50
2018-08-10T17:28:08.209Z,26.30
2018-08-10T17:30:38.627Z,25.90
2018-08-10T17:33:09.062Z,25.60
2018-08-10T17:35:39.365Z,25.50
2018-08-10T17:38:09.859Z,25.30
2018-08-10T17:40:40.279Z,24.70
2018-08-10T17:43:10.611Z,24.90
2018-08-10T17:45:41.700Z,24.90
2018-08-10T17:48:12.209Z,24.70
2018-08-10T17:50:42.522Z,24.70
2018-08-10T17:53:13.090Z,24.20
2018-08-10T17:55:43.415Z,24.30
2018-08-10T17:58:13.779Z,23.90
2018-08-10T18:00:44.184Z,23.80
2018-08-10T18:03:14.502Z,23.70
2018-08-10T18:05:45.021Z,23.50
2018-08-10T18:08:15.331Z,23.60
2018-08-10T18:10:45.980Z,23.50
2018-08-10T18:13:17.106Z,23.40
2018-08-10T18:15:47.473Z,23.20
2018-08-10T18:18:17.914Z,23.20
2018-08-10T18:20:48.219Z,23.10
2018-08-10T18:23:18.750Z,22.70
2018-08-10T18:25:49.562Z,22.60
2018-08-10T18:28:20.401Z,22.70
2018-08-10T18:30:50.927Z,22.20
2018-08-10T18:33:21.388Z,22.20
2018-08-10T18:35:51.866Z,22.10
2018-08-10T18:38:22.267Z,21.90
2018-08-10T18:40:52.728Z,21.80
2018-08-10T18:43:23.114Z,21.70
2018-08-10T18:45:53.739Z,21.50
2018-08-10T18:48:24.117Z,21.50
2018-08-10T18:50:54.678Z,21.20
2018-08-10T18:53:25.032Z,21.30
2018-08-10T18:55:55.519Z,21.20
2018-08-10T18:58:25.904Z,21.00
2018-08-10T19:00:56.317Z,21.00
2018-08-10T19:03:26.670Z,21.10
2018-08-10T19:05:57.067Z,20.80
2018-08-10T19:08:27.377Z,20.70
2018-08-10T19:10:57.717Z,20.60
2018-08-10T19:13:28.113Z,20.50
2018-08-10T19:15:58.431Z,20.50
2018-08-10T19:18:29.093Z,20.30
2018-08-10T19:20:59.990Z,20.20
2018-08-10T19:23:30.362Z,20.10
2018-08-10T19:26:00.810Z,20.20
2018-08-10T19:28:31.178Z,19.70
2018-08-10T19:31:02.112Z,20.10
2018-08-10T19:33:32.480Z,20.10
2018-08-10T19:36:02.923Z,20.10
2018-08-10T19:38:34.256Z,19.70
2018-08-10T19:41:04.762Z,19.90
2018-08-10T19:43:35.136Z,20.00
2018-08-10T19:46:05.735Z,19.80
2018-08-10T19:48:36.232Z,19.70
2018-08-10T19:51:06.635Z,19.70
2018-08-10T19:53:38.646Z,19.60
2018-08-10T19:56:09.436Z,19.60
2018-08-10T19:58:39.742Z,19.50
2018-08-10T20:01:10.123Z,19.40
2018-08-10T20:03:42.613Z,19.60
2018-08-10T20:06:13.050Z,19.40
2018-08-10T20:08:43.662Z,19.60
2018-08-10T20:11:14.149Z,19.40
2018-08-10T20:13:44.886Z,19.40
2018-08-10T20:16:15.377Z,19.30
2018-08-10T20:18:45.842Z,19.40
2018-08-10T20:21:16.330Z,19.30
2018-08-10T20:23:46.862Z,19.00
2018-08-10T20:26:17.402Z,19.00
2018-08-10T20:28:48.702Z,18.80
2018-08-10T20:31:19.989Z,18.80
2018-08-10T20:33:50.976Z,18.90
2018-08-10T20:36:21.764Z,18.80
2018-08-10T20:38:53.937Z,18.80
2018-08-10T20:41:24.948Z,18.80
2018-08-10T20:43:56.891Z,18.90
2018-08-10T20:46:27.282Z,19.00
2018-08-10T20:48:58.833Z,18.60
2018-08-10T20:51:29.363Z,18.60
2018-08-10T20:53:59.689Z,18.50
2018-08-10T20:56:30.082Z,18.40
2018-08-10T20:59:00.433Z,18.40
2018-08-10T21:01:30.861Z,18.20
2018-08-10T21:04:01.239Z,18.20
2018-08-10T21:06:31.739Z,18.10
2018-08-10T21:09:02.704Z,18.00
2018-08-10T21:11:33.139Z,18.00
2018-08-10T21:14:04.209Z,18.00
2018-08-10T21:16:34.882Z,17.90
2018-08-10T21:19:05.382Z,18.00
2018-08-10T21:21:35.776Z,18.00
2018-08-10T21:24:06.183Z,18.00
2018-08-10T21:26:36.727Z,18.10
2018-08-10T21:29:07.258Z,18.10
2018-08-10T21:31:37.730Z,17.90
2018-08-10T21:34:08.485Z,17.70
2018-08-10T21:36:39.375Z,17.70
2018-08-10T21:39:13.333Z,17.60
2018-08-10T21:41:43.746Z,17.50
2018-08-10T21:44:14.525Z,17.60
2018-08-10T21:46:44.994Z,17.60
2018-08-10T21:49:15.291Z,17.60
2018-08-10T21:51:45.972Z,17.30
2018-08-10T21:54:16.302Z,17.30
2018-08-10T21:56:47.191Z,17.20
2018-08-10T21:59:18.006Z,17.40
2018-08-10T22:01:48.404Z,17.40
2018-08-10T22:04:18.765Z,17.30
2018-08-10T22:06:49.339Z,17.40
2018-08-10T22:09:19.890Z,17.30
2018-08-10T22:11:51.024Z,17.30
2018-08-10T22:14:26.949Z,17.30
2018-08-10T22:17:02.589Z,17.20
2018-08-10T22:19:33.130Z,17.20
2018-08-10T22:22:03.563Z,17.20
2018-08-10T22:24:33.961Z,17.00
2018-08-10T22:27:04.584Z,17.10
2018-08-10T22:29:35.674Z,17.00
2018-08-10T22:32:06.029Z,16.90
2018-08-10T22:34:36.398Z,17.10
2018-08-10T22:37:06.745Z,17.00
2018-08-10T22:39:37.187Z,16.80
2018-08-10T22:42:08.288Z,16.90
2018-08-10T22:44:38.725Z,16.90
2018-08-10T22:47:09.117Z,16.70
2018-08-10T22:49:39.484Z,16.80
2018-08-10T22:52:09.823Z,17.00
2018-08-10T22:54:40.130Z,16.80
2018-08-10T22:57:10.445Z,16.70
2018-08-10T22:59:40.787Z,16.60
2018-08-10T23:02:11.143Z,16.70
2018-08-10T23:04:41.477Z,16.70
2018-08-10T23:07:12.115Z,16.60
2018-08-10T23:09:42.717Z,16.70
2018-08-10T23:12:14.434Z,16.60
2018-08-10T23:14:44.946Z,16.70
2018-08-10T23:17:15.374Z,16.50
2018-08-10T23:19:45.843Z,16.30
2018-08-10T23:22:16.226Z,16.40
2018-08-10T23:24:46.857Z,16.30
2018-08-10T23:27:17.601Z,16.30
2018-08-10T23:29:48.006Z,16.30
2018-08-10T23:32:19.007Z,16.50
2018-08-10T23:34:49.414Z,16.20
2018-08-10T23:37:19.913Z,16.30
2018-08-10T23:39:50.413Z,16.20
2018-08-10T23:42:20.781Z,16.20
2018-08-10T23:44:51.332Z,16.00
2018-08-10T23:47:21.702Z,16.20
2018-08-10T23:49:52.042Z,16.10
2018-08-10T23:52:22.831Z,16.10
2018-08-10T23:54:53.142Z,16.20
2018-08-10T23:57:23.487Z,16.20
2018-08-10T23:59:54.237Z,16.00
